sensor_id;sensor_type;location;lat;lon;timestamp;P1;durP1;ratioP1;P2;durP2;ratioP2
3767;SDS011;1899;49.966;7.106;2023-07-20T00:00:23;2.53;;;1.77;;
3767;SDS011;1899;49.966;7.106;2023-07-20T00:02:49;4.20;;;2.27;;
3767;SDS011;1899;49.966;7.106;2023-07-20T00:05:15;2.67;;;2.10;;
3767;SDS011;1899;49.966;7.106;2023-07-20T00:07:43;3.70;;;2.10;;
3767;SDS011;1899;49.966;7.106;2023-07-20T00:10:08;6.13;;;2.83;;
3767;SDS011;1899;49.966;7.106;2023-07-20T00:12:33;3.60;;;1.83;;
3767;SDS011;1899;49.966;7.106;2023-07-20T00:14:58;3.87;;;2.13;;
3767;SDS011;1899;49.966;7.106;2023-07-20T00:17:24;2.23;;;2.03;;
3767;SDS011;1899;49.966;7.106;2023-07-20T00:19:49;2.83;;;1.90;;
3767;SDS011;1899;49.966;7.106;2023-07-20T00:22:14;4.10;;;2.33;;
3767;SDS011;1899;49.966;7.106;2023-07-20T00:24:39;4.00;;;2.30;;
3767;SDS011;1899;49.966;7.106;2023-07-20T00:27:05;4.37;;;2.40;;
3767;SDS011;1899;49.966;7.106;2023-07-20T00:29:30;4.40;;;1.97;;
3767;SDS011;1899;49.966;7.106;2023-07-20T00:31:55;2.83;;;2.10;;
3767;SDS011;1899;49.966;7.106;2023-07-20T00:34:21;6.90;;;2.10;;
3767;SDS011;1899;49.966;7.106;2023-07-20T00:36:46;2.63;;;2.43;;
3767;SDS011;1899;49.966;7.106;2023-07-20T00:39:14;3.03;;;2.20;;
3767;SDS011;1899;49.966;7.106;2023-07-20T00:41:39;4.37;;;2.63;;
3767;SDS011;1899;49.966;7.106;2023-07-20T00:44:04;5.00;;;2.50;;
3767;SDS011;1899;49.966;7.106;2023-07-20T00:46:29;4.63;;;2.10;;
3767;SDS011;1899;49.966;7.106;2023-07-20T00:48:57;2.30;;;2.00;;
3767;SDS011;1899;49.966;7.106;2023-07-20T00:51:22;4.50;;;2.50;;
3767;SDS011;1899;49.966;7.106;2023-07-20T00:53:48;5.30;;;2.43;;
3767;SDS011;1899;49.966;7.106;2023-07-20T00:56:14;2.60;;;1.77;;
3767;SDS011;1899;49.966;7.106;2023-07-20T00:58:39;3.93;;;1.97;;
3767;SDS011;1899;49.966;7.106;2023-07-20T01:01:05;5.07;;;2.63;;
3767;SDS011;1899;49.966;7.106;2023-07-20T01:03:30;4.73;;;2.30;;
3767;SDS011;1899;49.966;7.106;2023-07-20T01:08:35;4.03;;;2.30;;
3767;SDS011;1899;49.966;7.106;2023-07-20T01:11:08;2.43;;;2.20;;
3767;SDS011;1899;49.966;7.106;2023-07-20T01:13:34;5.00;;;2.57;;
3767;SDS011;1899;49.966;7.106;2023-07-20T01:16:01;3.27;;;2.20;;
3767;SDS011;1899;49.966;7.106;2023-07-20T01:18:26;2.67;;;2.20;;
3767;SDS011;1899;49.966;7.106;2023-07-20T01:20:53;2.90;;;2.20;;
3767;SDS011;1899;49.966;7.106;2023-07-20T01:33:24;3.23;;;1.90;;
3767;SDS011;1899;49.966;7.106;2023-07-20T01:36:00;2.53;;;1.87;;
3767;SDS011;1899;49.966;7.106;2023-07-20T01:38:26;2.53;;;2.20;;
3767;SDS011;1899;49.966;7.106;2023-07-20T01:40:51;2.63;;;1.90;;
3767;SDS011;1899;49.966;7.106;2023-07-20T01:43:17;2.80;;;2.00;;
3767;SDS011;1899;49.966;7.106;2023-07-20T01:45:42;5.63;;;2.50;;
3767;SDS011;1899;49.966;7.106;2023-07-20T01:48:08;3.20;;;2.30;;
3767;SDS011;1899;49.966;7.106;2023-07-20T01:50:33;4.93;;;2.33;;
3767;SDS011;1899;49.966;7.106;2023-07-20T01:52:59;4.37;;;2.20;;
3767;SDS011;1899;49.966;7.106;2023-07-20T01:55:24;2.50;;;2.30;;
3767;SDS011;1899;49.966;7.106;2023-07-20T01:57:50;2.77;;;2.07;;
3767;SDS011;1899;49.966;7.106;2023-07-20T02:00:15;3.13;;;2.23;;
3767;SDS011;1899;49.966;7.106;2023-07-20T02:02:41;5.03;;;1.87;;
3767;SDS011;1899;49.966;7.106;2023-07-20T02:05:06;4.30;;;3.03;;
3767;SDS011;1899;49.966;7.106;2023-07-20T02:07:31;3.07;;;2.40;;
3767;SDS011;1899;49.966;7.106;2023-07-20T02:09:56;6.57;;;2.27;;
3767;SDS011;1899;49.966;7.106;2023-07-20T02:12:22;2.70;;;1.97;;
3767;SDS011;1899;49.966;7.106;2023-07-20T02:14:47;2.90;;;2.07;;
3767;SDS011;1899;49.966;7.106;2023-07-20T02:17:12;6.47;;;2.50;;
3767;SDS011;1899;49.966;7.106;2023-07-20T02:19:38;2.60;;;2.17;;
3767;SDS011;1899;49.966;7.106;2023-07-20T02:22:03;2.70;;;2.00;;
3767;SDS011;1899;49.966;7.106;2023-07-20T02:24:29;3.57;;;2.10;;
3767;SDS011;1899;49.966;7.106;2023-07-20T02:26:54;5.50;;;2.23;;
3767;SDS011;1899;49.966;7.106;2023-07-20T02:29:19;2.90;;;2.23;;
3767;SDS011;1899;49.966;7.106;2023-07-20T02:31:44;3.43;;;2.27;;
3767;SDS011;1899;49.966;7.106;2023-07-20T02:34:10;5.57;;;2.63;;
3767;SDS011;1899;49.966;7.106;2023-07-20T02:36:35;2.20;;;1.80;;
3767;SDS011;1899;49.966;7.106;2023-07-20T02:39:00;3.87;;;2.27;;
3767;SDS011;1899;49.966;7.106;2023-07-20T02:41:28;3.70;;;2.07;;
3767;SDS011;1899;49.966;7.106;2023-07-20T02:43:53;3.57;;;2.00;;
3767;SDS011;1899;49.966;7.106;2023-07-20T02:46:18;3.37;;;1.90;;
3767;SDS011;1899;49.966;7.106;2023-07-20T02:48:44;4.07;;;2.50;;
3767;SDS011;1899;49.966;7.106;2023-07-20T02:51:09;3.33;;;1.70;;
3767;SDS011;1899;49.966;7.106;2023-07-20T02:53:36;4.27;;;2.20;;
3767;SDS011;1899;49.966;7.106;2023-07-20T02:56:01;4.43;;;2.30;;
3767;SDS011;1899;49.966;7.106;2023-07-20T02:58:26;4.20;;;2.73;;
3767;SDS011;1899;49.966;7.106;2023-07-20T03:00:52;3.23;;;2.20;;
3767;SDS011;1899;49.966;7.106;2023-07-20T03:03:17;3.00;;;2.20;;
3767;SDS011;1899;49.966;7.106;2023-07-20T03:05:42;4.57;;;2.47;;
3767;SDS011;1899;49.966;7.106;2023-07-20T03:08:08;3.63;;;2.00;;
3767;SDS011;1899;49.966;7.106;2023-07-20T03:10:33;2.70;;;2.20;;
3767;SDS011;1899;49.966;7.106;2023-07-20T03:13:03;2.67;;;2.20;;
3767;SDS011;1899;49.966;7.106;2023-07-20T03:15:28;6.20;;;2.10;;
3767;SDS011;1899;49.966;7.106;2023-07-20T03:17:54;4.40;;;2.20;;
3767;SDS011;1899;49.966;7.106;2023-07-20T03:20:19;5.57;;;2.27;;
3767;SDS011;1899;49.966;7.106;2023-07-20T03:22:44;4.00;;;2.77;;
3767;SDS011;1899;49.966;7.106;2023-07-20T03:25:10;8.33;;;2.63;;
3767;SDS011;1899;49.966;7.106;2023-07-20T03:27:35;3.60;;;2.40;;
3767;SDS011;1899;49.966;7.106;2023-07-20T03:30:01;3.40;;;2.00;;
3767;SDS011;1899;49.966;7.106;2023-07-20T03:32:26;3.87;;;2.13;;
3767;SDS011;1899;49.966;7.106;2023-07-20T03:34:52;2.80;;;2.07;;
3767;SDS011;1899;49.966;7.106;2023-07-20T03:37:17;2.67;;;1.80;;
3767;SDS011;1899;49.966;7.106;2023-07-20T03:39:42;3.37;;;2.17;;
3767;SDS011;1899;49.966;7.106;2023-07-20T03:42:07;4.03;;;2.20;;
3767;SDS011;1899;49.966;7.106;2023-07-20T03:44:33;2.40;;;2.00;;
3767;SDS011;1899;49.966;7.106;2023-07-20T03:46:58;3.37;;;2.13;;
3767;SDS011;1899;49.966;7.106;2023-07-20T03:49:23;4.10;;;2.20;;
3767;SDS011;1899;49.966;7.106;2023-07-20T03:51:48;5.83;;;2.60;;
3767;SDS011;1899;49.966;7.106;2023-07-20T03:54:14;2.93;;;2.00;;
3767;SDS011;1899;49.966;7.106;2023-07-20T03:56:39;4.30;;;2.47;;
3767;SDS011;1899;49.966;7.106;2023-07-20T03:59:04;3.50;;;2.10;;
3767;SDS011;1899;49.966;7.106;2023-07-20T04:01:29;3.77;;;2.43;;
3767;SDS011;1899;49.966;7.106;2023-07-20T04:03:55;2.93;;;2.50;;
3767;SDS011;1899;49.966;7.106;2023-07-20T04:06:20;3.27;;;2.20;;
3767;SDS011;1899;49.966;7.106;2023-07-20T04:08:45;3.90;;;2.30;;
3767;SDS011;1899;49.966;7.106;2023-07-20T04:11:12;2.70;;;2.00;;
3767;SDS011;1899;49.966;7.106;2023-07-20T04:13:37;7.13;;;3.00;;
3767;SDS011;1899;49.966;7.106;2023-07-20T04:16:02;3.53;;;2.37;;
3767;SDS011;1899;49.966;7.106;2023-07-20T04:18:28;2.10;;;1.80;;
3767;SDS011;1899;49.966;7.106;2023-07-20T04:20:53;3.13;;;2.50;;
3767;SDS011;1899;49.966;7.106;2023-07-20T04:23:18;2.80;;;2.27;;
3767;SDS011;1899;49.966;7.106;2023-07-20T04:25:43;3.03;;;2.13;;
3767;SDS011;1899;49.966;7.106;2023-07-20T04:28:09;2.00;;;1.80;;
3767;SDS011;1899;49.966;7.106;2023-07-20T04:30:35;3.37;;;2.33;;
3767;SDS011;1899;49.966;7.106;2023-07-20T04:33:01;2.40;;;2.00;;
3767;SDS011;1899;49.966;7.106;2023-07-20T04:38:10;7.87;;;2.57;;
3767;SDS011;1899;49.966;7.106;2023-07-20T04:40:36;7.43;;;2.37;;
3767;SDS011;1899;49.966;7.106;2023-07-20T04:43:01;3.53;;;2.43;;
3767;SDS011;1899;49.966;7.106;2023-07-20T04:45:26;3.07;;;2.30;;
3767;SDS011;1899;49.966;7.106;2023-07-20T04:47:51;4.73;;;2.77;;
3767;SDS011;1899;49.966;7.106;2023-07-20T04:50:17;4.00;;;2.70;;
3767;SDS011;1899;49.966;7.106;2023-07-20T04:52:42;6.97;;;2.73;;
3767;SDS011;1899;49.966;7.106;2023-07-20T04:55:07;3.80;;;2.37;;
3767;SDS011;1899;49.966;7.106;2023-07-20T04:57:33;2.50;;;1.97;;
3767;SDS011;1899;49.966;7.106;2023-07-20T04:59:58;4.40;;;2.50;;
3767;SDS011;1899;49.966;7.106;2023-07-20T05:02:23;4.17;;;2.40;;
3767;SDS011;1899;49.966;7.106;2023-07-20T05:04:49;3.93;;;2.30;;
3767;SDS011;1899;49.966;7.106;2023-07-20T05:07:14;2.57;;;2.37;;
3767;SDS011;1899;49.966;7.106;2023-07-20T05:09:39;4.00;;;2.40;;
3767;SDS011;1899;49.966;7.106;2023-07-20T05:12:05;2.40;;;2.00;;
3767;SDS011;1899;49.966;7.106;2023-07-20T05:14:31;5.83;;;2.47;;
3767;SDS011;1899;49.966;7.106;2023-07-20T05:16:56;6.33;;;2.80;;
3767;SDS011;1899;49.966;7.106;2023-07-20T05:19:21;4.60;;;2.00;;
3767;SDS011;1899;49.966;7.106;2023-07-20T05:21:46;3.43;;;2.00;;
3767;SDS011;1899;49.966;7.106;2023-07-20T05:24:12;3.63;;;2.67;;
3767;SDS011;1899;49.966;7.106;2023-07-20T05:26:37;4.87;;;2.50;;
3767;SDS011;1899;49.966;7.106;2023-07-20T05:29:03;3.40;;;2.00;;
3767;SDS011;1899;49.966;7.106;2023-07-20T05:31:28;5.97;;;2.17;;
3767;SDS011;1899;49.966;7.106;2023-07-20T05:33:55;3.50;;;2.40;;
3767;SDS011;1899;49.966;7.106;2023-07-20T05:36:20;5.33;;;3.07;;
3767;SDS011;1899;49.966;7.106;2023-07-20T05:38:46;2.63;;;2.03;;
3767;SDS011;1899;49.966;7.106;2023-07-20T05:41:11;5.70;;;2.73;;
3767;SDS011;1899;49.966;7.106;2023-07-20T05:43:36;2.40;;;2.17;;
3767;SDS011;1899;49.966;7.106;2023-07-20T05:46:02;3.60;;;2.00;;
3767;SDS011;1899;49.966;7.106;2023-07-20T05:48:27;5.40;;;2.30;;
3767;SDS011;1899;49.966;7.106;2023-07-20T05:53:37;3.60;;;2.43;;
3767;SDS011;1899;49.966;7.106;2023-07-20T05:56:03;3.07;;;2.60;;
3767;SDS011;1899;49.966;7.106;2023-07-20T05:58:28;4.47;;;2.27;;
3767;SDS011;1899;49.966;7.106;2023-07-20T06:00:53;3.87;;;2.10;;
3767;SDS011;1899;49.966;7.106;2023-07-20T06:03:19;4.50;;;2.27;;
3767;SDS011;1899;49.966;7.106;2023-07-20T06:05:46;4.00;;;2.30;;
3767;SDS011;1899;49.966;7.106;2023-07-20T06:08:11;4.93;;;2.57;;
3767;SDS011;1899;49.966;7.106;2023-07-20T06:10:37;7.13;;;3.13;;
3767;SDS011;1899;49.966;7.106;2023-07-20T06:13:02;3.67;;;2.53;;
3767;SDS011;1899;49.966;7.106;2023-07-20T06:15:36;4.50;;;2.83;;
3767;SDS011;1899;49.966;7.106;2023-07-20T06:18:01;6.40;;;2.43;;
3767;SDS011;1899;49.966;7.106;2023-07-20T06:20:26;4.20;;;2.17;;
3767;SDS011;1899;49.966;7.106;2023-07-20T06:22:52;2.53;;;2.20;;
3767;SDS011;1899;49.966;7.106;2023-07-20T06:25:17;3.60;;;2.50;;
3767;SDS011;1899;49.966;7.106;2023-07-20T06:27:42;5.00;;;2.60;;
3767;SDS011;1899;49.966;7.106;2023-07-20T06:30:08;3.57;;;2.27;;
3767;SDS011;1899;49.966;7.106;2023-07-20T06:32:33;3.90;;;2.33;;
3767;SDS011;1899;49.966;7.106;2023-07-20T06:34:58;4.23;;;2.07;;
3767;SDS011;1899;49.966;7.106;2023-07-20T06:37:24;4.23;;;2.53;;
3767;SDS011;1899;49.966;7.106;2023-07-20T06:39:49;5.87;;;2.40;;
3767;SDS011;1899;49.966;7.106;2023-07-20T06:42:14;3.47;;;2.13;;
3767;SDS011;1899;49.966;7.106;2023-07-20T06:44:39;4.57;;;2.87;;
3767;SDS011;1899;49.966;7.106;2023-07-20T06:47:05;3.83;;;3.07;;
3767;SDS011;1899;49.966;7.106;2023-07-20T06:49:31;3.67;;;2.97;;
3767;SDS011;1899;49.966;7.106;2023-07-20T06:51:57;5.07;;;2.50;;
3767;SDS011;1899;49.966;7.106;2023-07-20T06:54:22;6.37;;;3.30;;
3767;SDS011;1899;49.966;7.106;2023-07-20T06:56:48;6.40;;;3.27;;
3767;SDS011;1899;49.966;7.106;2023-07-20T06:59:13;6.60;;;2.80;;
3767;SDS011;1899;49.966;7.106;2023-07-20T07:01:38;7.03;;;3.23;;
3767;SDS011;1899;49.966;7.106;2023-07-20T07:04:04;4.47;;;2.77;;
3767;SDS011;1899;49.966;7.106;2023-07-20T07:06:30;3.33;;;2.40;;
3767;SDS011;1899;49.966;7.106;2023-07-20T07:08:55;6.97;;;2.67;;
3767;SDS011;1899;49.966;7.106;2023-07-20T07:11:21;3.67;;;2.13;;
3767;SDS011;1899;49.966;7.106;2023-07-20T07:13:46;3.77;;;2.70;;
3767;SDS011;1899;49.966;7.106;2023-07-20T07:16:14;6.07;;;2.43;;
3767;SDS011;1899;49.966;7.106;2023-07-20T07:18:43;2.83;;;2.43;;
3767;SDS011;1899;49.966;7.106;2023-07-20T07:21:08;3.70;;;2.00;;
3767;SDS011;1899;49.966;7.106;2023-07-20T07:23:34;6.50;;;2.80;;
3767;SDS011;1899;49.966;7.106;2023-07-20T07:25:59;8.83;;;2.37;;
3767;SDS011;1899;49.966;7.106;2023-07-20T07:28:24;4.20;;;2.13;;
3767;SDS011;1899;49.966;7.106;2023-07-20T07:30:49;8.93;;;2.83;;
3767;SDS011;1899;49.966;7.106;2023-07-20T07:33:14;8.43;;;2.83;;
3767;SDS011;1899;49.966;7.106;2023-07-20T07:35:40;3.20;;;2.47;;
3767;SDS011;1899;49.966;7.106;2023-07-20T07:38:05;4.73;;;2.93;;
3767;SDS011;1899;49.966;7.106;2023-07-20T07:40:31;5.33;;;3.30;;
3767;SDS011;1899;49.966;7.106;2023-07-20T07:42:56;5.40;;;3.30;;
3767;SDS011;1899;49.966;7.106;2023-07-20T07:45:22;4.70;;;2.73;;
3767;SDS011;1899;49.966;7.106;2023-07-20T07:47:47;3.90;;;2.47;;
3767;SDS011;1899;49.966;7.106;2023-07-20T07:50:12;3.83;;;3.10;;
3767;SDS011;1899;49.966;7.106;2023-07-20T07:52:38;6.03;;;3.20;;
3767;SDS011;1899;49.966;7.106;2023-07-20T07:55:03;5.07;;;3.67;;
3767;SDS011;1899;49.966;7.106;2023-07-20T07:57:29;6.30;;;3.80;;
3767;SDS011;1899;49.966;7.106;2023-07-20T07:59:54;5.27;;;3.40;;
3767;SDS011;1899;49.966;7.106;2023-07-20T08:02:19;4.60;;;2.87;;
3767;SDS011;1899;49.966;7.106;2023-07-20T08:04:46;3.97;;;2.60;;
3767;SDS011;1899;49.966;7.106;2023-07-20T08:07:12;4.57;;;3.10;;
3767;SDS011;1899;49.966;7.106;2023-07-20T08:09:39;4.07;;;2.90;;
3767;SDS011;1899;49.966;7.106;2023-07-20T08:12:05;5.03;;;2.80;;
3767;SDS011;1899;49.966;7.106;2023-07-20T08:14:31;4.10;;;2.53;;
3767;SDS011;1899;49.966;7.106;2023-07-20T08:16:57;5.90;;;2.87;;
3767;SDS011;1899;49.966;7.106;2023-07-20T08:19:23;3.77;;;2.53;;
3767;SDS011;1899;49.966;7.106;2023-07-20T08:21:50;4.07;;;2.80;;
3767;SDS011;1899;49.966;7.106;2023-07-20T08:24:16;4.33;;;2.40;;
3767;SDS011;1899;49.966;7.106;2023-07-20T08:26:42;4.40;;;2.60;;
3767;SDS011;1899;49.966;7.106;2023-07-20T08:29:08;2.90;;;2.30;;
3767;SDS011;1899;49.966;7.106;2023-07-20T08:31:35;3.50;;;2.60;;
3767;SDS011;1899;49.966;7.106;2023-07-20T08:34:00;4.50;;;2.67;;
3767;SDS011;1899;49.966;7.106;2023-07-20T08:36:26;3.13;;;2.40;;
3767;SDS011;1899;49.966;7.106;2023-07-20T08:38:52;4.10;;;2.63;;
3767;SDS011;1899;49.966;7.106;2023-07-20T08:41:18;3.80;;;2.53;;
3767;SDS011;1899;49.966;7.106;2023-07-20T08:43:44;4.43;;;2.80;;
3767;SDS011;1899;49.966;7.106;2023-07-20T08:46:12;6.00;;;2.27;;
3767;SDS011;1899;49.966;7.106;2023-07-20T08:48:38;4.87;;;3.10;;
3767;SDS011;1899;49.966;7.106;2023-07-20T08:51:04;5.70;;;2.83;;
3767;SDS011;1899;49.966;7.106;2023-07-20T08:53:30;4.10;;;2.60;;
3767;SDS011;1899;49.966;7.106;2023-07-20T08:55:56;3.20;;;2.37;;
3767;SDS011;1899;49.966;7.106;2023-07-20T08:58:23;3.67;;;2.30;;
3767;SDS011;1899;49.966;7.106;2023-07-20T09:00:48;3.57;;;3.00;;
3767;SDS011;1899;49.966;7.106;2023-07-20T09:03:15;3.77;;;2.80;;
3767;SDS011;1899;49.966;7.106;2023-07-20T09:05:41;4.70;;;2.23;;
3767;SDS011;1899;49.966;7.106;2023-07-20T09:08:06;3.07;;;2.77;;
3767;SDS011;1899;49.966;7.106;2023-07-20T09:10:32;3.50;;;2.83;;
3767;SDS011;1899;49.966;7.106;2023-07-20T09:12:57;3.83;;;3.33;;
3767;SDS011;1899;49.966;7.106;2023-07-20T09:15:22;4.07;;;2.80;;
3767;SDS011;1899;49.966;7.106;2023-07-20T09:17:51;5.20;;;2.63;;
3767;SDS011;1899;49.966;7.106;2023-07-20T09:20:19;3.53;;;2.23;;
3767;SDS011;1899;49.966;7.106;2023-07-20T09:22:45;2.53;;;2.23;;
3767;SDS011;1899;49.966;7.106;2023-07-20T09:27:37;2.40;;;2.20;;
3767;SDS011;1899;49.966;7.106;2023-07-20T09:30:03;4.63;;;2.40;;
3767;SDS011;1899;49.966;7.106;2023-07-20T09:32:29;3.13;;;2.73;;
3767;SDS011;1899;49.966;7.106;2023-07-20T09:34:55;3.97;;;2.47;;
3767;SDS011;1899;49.966;7.106;2023-07-20T09:37:20;3.30;;;2.60;;
3767;SDS011;1899;49.966;7.106;2023-07-20T09:39:46;4.87;;;2.67;;
3767;SDS011;1899;49.966;7.106;2023-07-20T09:42:12;2.70;;;2.20;;
3767;SDS011;1899;49.966;7.106;2023-07-20T09:44:40;5.13;;;2.50;;
3767;SDS011;1899;49.966;7.106;2023-07-20T09:47:08;2.87;;;2.50;;
3767;SDS011;1899;49.966;7.106;2023-07-20T09:49:38;2.67;;;2.37;;
3767;SDS011;1899;49.966;7.106;2023-07-20T09:52:04;4.87;;;2.77;;
3767;SDS011;1899;49.966;7.106;2023-07-20T09:54:29;3.20;;;2.90;;
3767;SDS011;1899;49.966;7.106;2023-07-20T09:56:56;2.90;;;2.27;;
3767;SDS011;1899;49.966;7.106;2023-07-20T09:59:21;3.63;;;2.37;;
3767;SDS011;1899;49.966;7.106;2023-07-20T10:01:47;5.33;;;2.67;;
3767;SDS011;1899;49.966;7.106;2023-07-20T10:04:12;1.93;;;1.80;;
3767;SDS011;1899;49.966;7.106;2023-07-20T10:06:42;3.43;;;2.13;;
3767;SDS011;1899;49.966;7.106;2023-07-20T10:09:07;4.50;;;2.10;;
3767;SDS011;1899;49.966;7.106;2023-07-20T10:11:35;2.40;;;2.10;;
3767;SDS011;1899;49.966;7.106;2023-07-20T10:14:03;2.97;;;2.17;;
3767;SDS011;1899;49.966;7.106;2023-07-20T10:16:36;3.70;;;2.23;;
3767;SDS011;1899;49.966;7.106;2023-07-20T10:21:29;2.40;;;1.93;;
3767;SDS011;1899;49.966;7.106;2023-07-20T10:23:58;4.67;;;2.17;;
3767;SDS011;1899;49.966;7.106;2023-07-20T10:26:24;3.17;;;2.10;;
3767;SDS011;1899;49.966;7.106;2023-07-20T10:28:51;2.30;;;1.90;;
3767;SDS011;1899;49.966;7.106;2023-07-20T10:31:16;3.00;;;1.90;;
3767;SDS011;1899;49.966;7.106;2023-07-20T10:33:42;2.30;;;1.70;;
3767;SDS011;1899;49.966;7.106;2023-07-20T10:36:09;2.87;;;2.00;;
3767;SDS011;1899;49.966;7.106;2023-07-20T10:38:52;2.40;;;2.07;;
3767;SDS011;1899;49.966;7.106;2023-07-20T10:41:33;4.57;;;2.47;;
3767;SDS011;1899;49.966;7.106;2023-07-20T10:44:07;3.67;;;2.00;;
3767;SDS011;1899;49.966;7.106;2023-07-20T10:46:33;4.40;;;2.50;;
3767;SDS011;1899;49.966;7.106;2023-07-20T10:48:59;2.73;;;2.07;;
3767;SDS011;1899;49.966;7.106;2023-07-20T10:51:26;2.83;;;1.97;;
3767;SDS011;1899;49.966;7.106;2023-07-20T10:53:51;2.73;;;2.40;;
3767;SDS011;1899;49.966;7.106;2023-07-20T10:56:22;4.00;;;2.03;;
3767;SDS011;1899;49.966;7.106;2023-07-20T10:58:47;2.03;;;1.73;;
3767;SDS011;1899;49.966;7.106;2023-07-20T11:01:13;2.33;;;2.13;;
3767;SDS011;1899;49.966;7.106;2023-07-20T11:03:39;4.70;;;1.87;;
3767;SDS011;1899;49.966;7.106;2023-07-20T11:08:50;2.00;;;1.90;;
3767;SDS011;1899;49.966;7.106;2023-07-20T11:11:29;3.50;;;2.10;;
3767;SDS011;1899;49.966;7.106;2023-07-20T11:13:58;3.90;;;1.70;;
3767;SDS011;1899;49.966;7.106;2023-07-20T11:16:43;2.43;;;2.10;;
3767;SDS011;1899;49.966;7.106;2023-07-20T11:21:55;3.70;;;1.50;;
3767;SDS011;1899;49.966;7.106;2023-07-20T11:24:21;2.00;;;1.80;;
3767;SDS011;1899;49.966;7.106;2023-07-20T11:26:50;3.37;;;1.93;;
3767;SDS011;1899;49.966;7.106;2023-07-20T11:29:16;4.03;;;1.93;;
3767;SDS011;1899;49.966;7.106;2023-07-20T11:31:42;1.70;;;1.43;;
3767;SDS011;1899;49.966;7.106;2023-07-20T11:34:10;2.53;;;1.80;;
3767;SDS011;1899;49.966;7.106;2023-07-20T11:36:36;7.53;;;2.00;;
3767;SDS011;1899;49.966;7.106;2023-07-20T11:39:02;3.20;;;1.57;;
3767;SDS011;1899;49.966;7.106;2023-07-20T11:41:29;3.43;;;1.73;;
3767;SDS011;1899;49.966;7.106;2023-07-20T11:43:55;3.70;;;1.80;;
3767;SDS011;1899;49.966;7.106;2023-07-20T11:46:20;4.60;;;1.73;;
3767;SDS011;1899;49.966;7.106;2023-07-20T11:48:45;2.70;;;1.70;;
3767;SDS011;1899;49.966;7.106;2023-07-20T11:51:17;2.87;;;1.23;;
3767;SDS011;1899;49.966;7.106;2023-07-20T11:53:43;1.63;;;1.50;;
3767;SDS011;1899;49.966;7.106;2023-07-20T11:56:09;2.03;;;1.63;;
3767;SDS011;1899;49.966;7.106;2023-07-20T11:58:35;2.70;;;1.60;;
3767;SDS011;1899;49.966;7.106;2023-07-20T12:01:00;1.23;;;1.10;;
3767;SDS011;1899;49.966;7.106;2023-07-20T12:03:27;1.30;;;1.20;;
3767;SDS011;1899;49.966;7.106;2023-07-20T12:05:52;3.10;;;1.90;;
3767;SDS011;1899;49.966;7.106;2023-07-20T12:08:17;2.87;;;1.33;;
3767;SDS011;1899;49.966;7.106;2023-07-20T12:10:43;3.57;;;1.40;;
3767;SDS011;1899;49.966;7.106;2023-07-20T12:13:09;1.80;;;1.30;;
3767;SDS011;1899;49.966;7.106;2023-07-20T12:15:35;1.90;;;1.60;;
3767;SDS011;1899;49.966;7.106;2023-07-20T12:18:01;1.83;;;1.20;;
3767;SDS011;1899;49.966;7.106;2023-07-20T12:20:30;1.83;;;1.10;;
3767;SDS011;1899;49.966;7.106;2023-07-20T12:22:57;1.37;;;1.27;;
3767;SDS011;1899;49.966;7.106;2023-07-20T12:25:23;2.27;;;1.17;;
3767;SDS011;1899;49.966;7.106;2023-07-20T12:27:48;1.87;;;1.40;;
3767;SDS011;1899;49.966;7.106;2023-07-20T12:30:13;1.50;;;1.37;;
3767;SDS011;1899;49.966;7.106;2023-07-20T12:32:39;3.37;;;1.70;;
3767;SDS011;1899;49.966;7.106;2023-07-20T12:35:04;2.60;;;1.03;;
3767;SDS011;1899;49.966;7.106;2023-07-20T12:37:31;3.40;;;1.40;;
3767;SDS011;1899;49.966;7.106;2023-07-20T12:39:56;1.30;;;1.20;;
3767;SDS011;1899;49.966;7.106;2023-07-20T12:42:22;2.23;;;1.53;;
3767;SDS011;1899;49.966;7.106;2023-07-20T12:44:48;2.10;;;1.20;;
3767;SDS011;1899;49.966;7.106;2023-07-20T12:47:14;1.33;;;1.23;;
3767;SDS011;1899;49.966;7.106;2023-07-20T12:49:39;2.03;;;1.47;;
3767;SDS011;1899;49.966;7.106;2023-07-20T12:52:05;1.20;;;1.10;;
3767;SDS011;1899;49.966;7.106;2023-07-20T12:54:31;2.83;;;1.40;;
3767;SDS011;1899;49.966;7.106;2023-07-20T12:56:56;1.30;;;1.20;;
3767;SDS011;1899;49.966;7.106;2023-07-20T12:59:21;2.60;;;1.20;;
3767;SDS011;1899;49.966;7.106;2023-07-20T13:01:46;1.50;;;1.20;;
3767;SDS011;1899;49.966;7.106;2023-07-20T13:04:12;3.23;;;1.30;;
3767;SDS011;1899;49.966;7.106;2023-07-20T13:06:39;1.73;;;1.20;;
3767;SDS011;1899;49.966;7.106;2023-07-20T13:09:04;2.00;;;1.50;;
3767;SDS011;1899;49.966;7.106;2023-07-20T13:11:29;1.27;;;1.10;;
3767;SDS011;1899;49.966;7.106;2023-07-20T13:13:55;1.70;;;1.57;;
3767;SDS011;1899;49.966;7.106;2023-07-20T13:16:20;2.43;;;1.00;;
3767;SDS011;1899;49.966;7.106;2023-07-20T13:18:45;1.30;;;1.20;;
3767;SDS011;1899;49.966;7.106;2023-07-20T13:21:11;2.73;;;1.30;;
3767;SDS011;1899;49.966;7.106;2023-07-20T13:23:36;1.93;;;1.20;;
3767;SDS011;1899;49.966;7.106;2023-07-20T13:26:02;2.03;;;1.43;;
3767;SDS011;1899;49.966;7.106;2023-07-20T13:28:28;3.50;;;1.40;;
3767;SDS011;1899;49.966;7.106;2023-07-20T13:30:53;2.73;;;1.53;;
3767;SDS011;1899;49.966;7.106;2023-07-20T13:33:19;1.60;;;1.50;;
3767;SDS011;1899;49.966;7.106;2023-07-20T13:35:44;2.77;;;2.00;;
3767;SDS011;1899;49.966;7.106;2023-07-20T13:38:09;1.63;;;1.53;;
3767;SDS011;1899;49.966;7.106;2023-07-20T13:40:35;2.77;;;1.60;;
3767;SDS011;1899;49.966;7.106;2023-07-20T13:43:02;2.00;;;1.70;;
3767;SDS011;1899;49.966;7.106;2023-07-20T13:45:28;3.07;;;1.67;;
3767;SDS011;1899;49.966;7.106;2023-07-20T13:47:53;2.20;;;1.50;;
3767;SDS011;1899;49.966;7.106;2023-07-20T13:50:18;4.60;;;1.60;;
3767;SDS011;1899;49.966;7.106;2023-07-20T13:52:44;3.07;;;1.70;;
3767;SDS011;1899;49.966;7.106;2023-07-20T13:55:09;2.80;;;1.53;;
3767;SDS011;1899;49.966;7.106;2023-07-20T13:57:34;1.60;;;1.40;;
3767;SDS011;1899;49.966;7.106;2023-07-20T14:00:00;1.73;;;1.43;;
3767;SDS011;1899;49.966;7.106;2023-07-20T14:02:26;3.27;;;1.63;;
3767;SDS011;1899;49.966;7.106;2023-07-20T14:04:52;5.10;;;1.57;;
3767;SDS011;1899;49.966;7.106;2023-07-20T14:07:20;1.73;;;1.27;;
3767;SDS011;1899;49.966;7.106;2023-07-20T14:09:46;2.13;;;1.53;;
3767;SDS011;1899;49.966;7.106;2023-07-20T14:12:11;2.07;;;1.33;;
3767;SDS011;1899;49.966;7.106;2023-07-20T14:14:39;2.30;;;1.17;;
3767;SDS011;1899;49.966;7.106;2023-07-20T14:17:04;2.23;;;1.67;;
3767;SDS011;1899;49.966;7.106;2023-07-20T14:19:29;1.60;;;1.20;;
3767;SDS011;1899;49.966;7.106;2023-07-20T14:21:54;1.97;;;1.60;;
3767;SDS011;1899;49.966;7.106;2023-07-20T14:24:20;1.83;;;1.50;;
3767;SDS011;1899;49.966;7.106;2023-07-20T14:26:45;4.67;;;1.57;;
3767;SDS011;1899;49.966;7.106;2023-07-20T14:29:12;2.17;;;1.30;;
3767;SDS011;1899;49.966;7.106;2023-07-20T14:31:38;2.70;;;1.50;;
3767;SDS011;1899;49.966;7.106;2023-07-20T14:34:03;2.30;;;1.33;;
3767;SDS011;1899;49.966;7.106;2023-07-20T14:36:28;4.53;;;1.67;;
3767;SDS011;1899;49.966;7.106;2023-07-20T14:38:53;2.60;;;1.50;;
3767;SDS011;1899;49.966;7.106;2023-07-20T14:41:19;1.30;;;1.20;;
3767;SDS011;1899;49.966;7.106;2023-07-20T14:43:44;1.50;;;1.20;;
3767;SDS011;1899;49.966;7.106;2023-07-20T14:46:09;1.47;;;1.30;;
3767;SDS011;1899;49.966;7.106;2023-07-20T14:48:35;1.30;;;1.10;;
3767;SDS011;1899;49.966;7.106;2023-07-20T14:51:00;3.40;;;2.00;;
3767;SDS011;1899;49.966;7.106;2023-07-20T14:53:25;3.43;;;1.23;;
3767;SDS011;1899;49.966;7.106;2023-07-20T14:55:57;3.83;;;1.40;;
3767;SDS011;1899;49.966;7.106;2023-07-20T14:58:22;4.00;;;1.23;;
3767;SDS011;1899;49.966;7.106;2023-07-20T15:00:48;3.47;;;1.50;;
3767;SDS011;1899;49.966;7.106;2023-07-20T15:03:13;1.97;;;1.23;;
3767;SDS011;1899;49.966;7.106;2023-07-20T15:05:38;1.60;;;1.33;;
3767;SDS011;1899;49.966;7.106;2023-07-20T15:08:05;2.07;;;1.60;;
3767;SDS011;1899;49.966;7.106;2023-07-20T15:10:31;2.80;;;1.33;;
3767;SDS011;1899;49.966;7.106;2023-07-20T15:12:57;1.40;;;1.30;;
3767;SDS011;1899;49.966;7.106;2023-07-20T15:15:22;2.03;;;1.37;;
3767;SDS011;1899;49.966;7.106;2023-07-20T15:17:48;1.43;;;1.27;;
3767;SDS011;1899;49.966;7.106;2023-07-20T15:20:14;3.43;;;1.40;;
3767;SDS011;1899;49.966;7.106;2023-07-20T15:22:40;2.33;;;1.57;;
3767;SDS011;1899;49.966;7.106;2023-07-20T15:25:06;2.33;;;1.60;;
3767;SDS011;1899;49.966;7.106;2023-07-20T15:27:32;1.63;;;1.27;;
3767;SDS011;1899;49.966;7.106;2023-07-20T15:29:57;1.97;;;1.57;;
3767;SDS011;1899;49.966;7.106;2023-07-20T15:32:22;1.63;;;1.50;;
3767;SDS011;1899;49.966;7.106;2023-07-20T15:34:48;2.30;;;1.30;;